Time;durP1;ratioP1;P1;durP2;ratioP2;P2;SDS_P1;SDS_P2;PMS_P1;PMS_P2;Temp;Humidity;BMP_temperature;BMP_pressure;BME280_temperature;BME280_humidity;BME280_pressure;Samples;Min_cycle;Max_cycle;Signal;HPM_P1;HPM_P2
2022/01/20 00:03:22;;;;;;;8.70;3.65;;;6.10;99.90;;;;;;5053384;28;20024;-52
2022/01/20 00:08:30;;;;;;;7.97;4.05;;;5.90;99.90;;;;;;5053193;28;20025;-55
2022/01/20 00:27:28;;;;;;;7.57;4.78;;;5.80;99.90;;;;;;5052935;28;20068;-50
2022/01/20 00:37:14;;;;;;;8.50;5.22;;;5.80;99.90;;;;;;5053290;28;20108;-55
2022/01/20 00:38:01;;;;;;;6.75;4.22;;;5.80;99.90;;;;;;5054071;28;20099;-52
2022/01/20 00:40:27;;;;;;;7.45;4.25;;;5.90;99.90;;;;;;5038598;28;20036;-50
2022/01/20 00:42:52;;;;;;;7.55;4.22;;;5.90;99.90;;;;;;5056359;28;20028;-51
2022/01/20 00:45:18;;;;;;;8.38;4.82;;;5.90;99.90;;;;;;5056334;28;20063;-53
2022/01/20 00:47:44;;;;;;;7.38;4.30;;;5.90;99.90;;;;;;5056365;28;20036;-52
2022/01/20 00:50:11;;;;;;;7.80;4.97;;;5.90;99.90;;;;;;5038374;28;20116;-54
2022/01/20 00:52:37;;;;;;;8.43;4.25;;;5.90;99.90;;;;;;5039538;28;20402;-54
2022/01/20 00:55:05;;;;;;;9.45;4.50;;;5.80;99.90;;;;;;5038587;28;20025;-54
2022/01/20 00:57:30;;;;;;;10.20;5.55;;;5.70;99.90;;;;;;5055992;28;20032;-56
2022/01/20 00:59:56;;;;;;;7.93;4.68;;;5.70;99.90;;;;;;5038206;28;20020;-51
2022/01/20 01:02:22;;;;;;;8.90;4.68;;;5.60;99.90;;;;;;5056053;28;20025;-54
2022/01/20 01:04:47;;;;;;;12.43;4.40;;;5.50;99.90;;;;;;5056451;28;20058;-51
2022/01/20 01:09:51;;;;;;;7.53;4.38;;;5.40;99.90;;;;;;5055872;28;20021;-55
2022/01/20 01:12:27;;;;;;;8.00;4.30;;;5.40;99.90;;;;;;5038258;28;20027;-53
2022/01/20 01:14:53;;;;;;;12.07;5.22;;;5.30;99.90;;;;;;5039016;28;20021;-52
2022/01/20 01:22:32;;;;;;;8.88;3.95;;;5.30;99.90;;;;;;5056324;28;20036;-54
2022/01/20 01:25:00;;;;;;;14.32;4.25;;;5.30;99.90;;;;;;5037920;28;20033;-53
2022/01/20 01:27:27;;;;;;;9.40;3.50;;;5.30;99.90;;;;;;5055479;28;20021;-53
2022/01/20 01:32:31;;;;;;;6.65;3.88;;;5.40;99.90;;;;;;5055535;28;20025;-49
2022/01/20 01:34:58;;;;;;;13.80;3.60;;;5.50;99.90;;;;;;5055760;28;20051;-50
2022/01/20 01:40:12;;;;;;;14.73;2.92;;;5.50;99.90;;;;;;5024537;28;20064;-51
2022/01/20 01:42:46;;;;;;;12.73;3.35;;;5.50;99.90;;;;;;5037635;28;20025;-52
2022/01/20 01:45:18;;;;;;;12.88;3.65;;;5.50;99.90;;;;;;5037408;28;20033;-52
2022/01/20 01:47:45;;;;;;;14.02;3.13;;;5.30;99.90;;;;;;5054803;28;20021;-49
2022/01/20 01:50:10;;;;;;;15.38;2.67;;;5.40;99.90;;;;;;5037245;28;20025;-53
2022/01/20 01:52:36;;;;;;;6.10;2.53;;;5.30;99.90;;;;;;5037227;28;20481;-53
2022/01/20 01:55:03;;;;;;;8.50;2.50;;;5.20;99.90;;;;;;5037260;28;20043;-53
2022/01/20 01:57:29;;;;;;;9.68;2.30;;;5.10;99.90;;;;;;5037240;28;20029;-55
2022/01/20 01:59:55;;;;;;;9.75;1.90;;;5.10;99.90;;;;;;5037286;28;20105;-51
2022/01/20 02:02:20;;;;;;;8.70;2.17;;;5.00;99.90;;;;;;5037144;28;20021;-53
2022/01/20 02:04:48;;;;;;;4.93;1.60;;;5.00;99.90;;;;;;5037015;28;20036;-53
2022/01/20 02:20:25;;;;;;;13.80;3.50;;;4.70;99.90;;;;;;5054924;28;20024;-55
2022/01/20 02:22:51;;;;;;;9.50;2.58;;;4.70;99.90;;;;;;5054529;28;20029;-53
2022/01/20 02:25:23;;;;;;;15.73;2.80;;;4.60;99.90;;;;;;5054701;28;20057;-51
2022/01/20 02:27:49;;;;;;;6.15;2.70;;;4.60;99.90;;;;;;5037309;28;20078;-53
2022/01/20 02:30:16;;;;;;;12.57;3.15;;;4.50;99.90;;;;;;5036514;28;20029;-54
2022/01/20 02:32:50;;;;;;;8.55;2.67;;;4.50;99.90;;;;;;5054266;28;20017;-53
2022/01/20 02:35:15;;;;;;;9.85;3.25;;;4.50;99.90;;;;;;5036752;28;20029;-55
2022/01/20 02:37:46;;;;;;;8.27;3.47;;;4.40;99.90;;;;;;5036698;28;20036;-53
2022/01/20 02:45:25;;;;;;;14.40;3.53;;;4.30;99.90;;;;;;5054395;28;20035;-53
2022/01/20 02:47:50;;;;;;;11.40;3.97;;;4.20;99.90;;;;;;5053978;28;20392;-51
2022/01/20 02:50:16;;;;;;;9.02;3.38;;;4.10;99.90;;;;;;5054436;28;20017;-50
2022/01/20 02:52:42;;;;;;;12.73;4.35;;;4.10;99.90;;;;;;5036364;28;20024;-54
2022/01/20 02:55:08;;;;;;;13.50;3.92;;;4.00;99.90;;;;;;5036437;28;20017;-51
2022/01/20 02:57:33;;;;;;;11.88;3.92;;;4.00;99.90;;;;;;5053993;28;20048;-52
2022/01/20 02:59:59;;;;;;;10.63;3.17;;;4.00;99.90;;;;;;5036126;28;20036;-49
2022/01/20 03:02:24;;;;;;;28.60;3.75;;;4.00;99.90;;;;;;5035929;28;20031;-50
2022/01/20 03:04:51;;;;;;;11.60;3.20;;;3.90;99.90;;;;;;5035931;28;20437;-51
2022/01/20 03:07:17;;;;;;;15.52;2.88;;;3.90;99.90;;;;;;5035770;28;20112;-55
2022/01/20 03:09:43;;;;;;;18.40;3.70;;;4.00;99.90;;;;;;5036355;28;20064;-49
2022/01/20 03:12:08;;;;;;;14.35;4.10;;;3.90;99.90;;;;;;5036103;28;20124;-49
2022/01/20 03:14:34;;;;;;;14.88;3.97;;;3.90;99.90;;;;;;5036280;28;20021;-49
2022/01/20 03:17:00;;;;;;;10.57;2.60;;;3.90;99.90;;;;;;5035788;28;20060;-52
2022/01/20 03:19:25;;;;;;;18.67;3.47;;;3.90;99.90;;;;;;5053667;28;20070;-51
2022/01/20 03:21:51;;;;;;;12.10;2.75;;;3.80;99.90;;;;;;5053423;28;20017;-49
2022/01/20 03:24:17;;;;;;;13.63;3.42;;;3.90;99.90;;;;;;5053406;28;20036;-49
2022/01/20 03:26:43;;;;;;;10.57;3.83;;;3.90;99.90;;;;;;5035463;28;20025;-51
2022/01/20 03:29:10;;;;;;;8.85;2.90;;;3.90;99.90;;;;;;5053547;28;20503;-50
2022/01/20 03:31:35;;;;;;;11.50;3.40;;;3.90;99.90;;;;;;5053656;28;20048;-54
2022/01/20 03:34:01;;;;;;;8.27;3.00;;;3.90;99.90;;;;;;5035464;28;20052;-54
2022/01/20 03:36:27;;;;;;;11.73;3.45;;;3.90;99.90;;;;;;5035480;28;20053;-51
2022/01/20 03:38:53;;;;;;;14.00;3.95;;;3.90;99.90;;;;;;5035703;28;20029;-50
2022/01/20 03:41:19;;;;;;;11.32;2.97;;;3.90;99.90;;;;;;5035298;28;20037;-49
2022/01/20 03:43:45;;;;;;;25.65;6.72;;;4.00;99.90;;;;;;5035420;28;20021;-54
2022/01/20 03:46:15;;;;;;;13.00;4.70;;;4.00;99.90;;;;;;5053328;28;20439;-50
2022/01/20 03:48:50;;;;;;;9.05;3.72;;;4.00;99.90;;;;;;5036105;28;20028;-49
2022/01/20 03:51:21;;;;;;;20.33;5.03;;;4.10;99.90;;;;;;5053366;28;20025;-49
2022/01/20 03:53:50;;;;;;;11.18;4.15;;;4.00;99.90;;;;;;5035198;28;20017;-50
2022/01/20 03:56:17;;;;;;;17.80;3.78;;;4.00;99.90;;;;;;5035120;28;20021;-49
2022/01/20 03:58:43;;;;;;;16.38;4.10;;;3.90;99.90;;;;;;5035138;28;20056;-49
2022/01/20 04:01:08;;;;;;;17.92;5.40;;;3.80;99.90;;;;;;5035149;28;20033;-51
2022/01/20 04:03:34;;;;;;;17.88;4.95;;;3.70;99.90;;;;;;5035222;28;20120;-53
2022/01/20 04:06:00;;;;;;;21.02;5.07;;;3.70;99.90;;;;;;5052917;28;20048;-50
2022/01/20 04:08:31;;;;;;;18.10;6.82;;;3.70;99.90;;;;;;5036187;28;20107;-50
2022/01/20 04:10:57;;;;;;;14.30;4.78;;;3.70;99.90;;;;;;5037248;28;20021;-51
2022/01/20 04:13:27;;;;;;;22.17;5.15;;;3.60;99.90;;;;;;5056970;28;20013;-51
2022/01/20 04:15:54;;;;;;;17.70;4.85;;;3.70;99.90;;;;;;5057092;28;20017;-54
2022/01/20 04:18:24;;;;;;;22.77;5.30;;;3.80;99.90;;;;;;5039316;28;20032;-54
2022/01/20 04:20:50;;;;;;;14.93;4.80;;;3.90;99.90;;;;;;5057093;28;20051;-50
2022/01/20 04:23:16;;;;;;;24.65;5.63;;;4.10;99.90;;;;;;5039078;28;20096;-54
2022/01/20 04:25:41;;;;;;;27.63;5.88;;;4.20;99.90;;;;;;5038777;28;20028;-54
2022/01/20 04:28:07;;;;;;;28.25;8.48;;;4.20;99.90;;;;;;5038666;28;20029;-54
2022/01/20 04:30:33;;;;;;;28.75;6.50;;;4.30;99.90;;;;;;5039667;28;20021;-52
2022/01/20 04:32:59;;;;;;;23.65;5.28;;;4.30;99.90;;;;;;5038762;28;20029;-54
2022/01/20 04:35:24;;;;;;;15.13;4.03;;;4.30;99.90;;;;;;5038702;28;20017;-53
2022/01/20 04:37:52;;;;;;;26.27;5.47;;;4.40;99.90;;;;;;5056381;28;20029;-54
2022/01/20 04:40:20;;;;;;;17.33;5.35;;;4.60;99.90;;;;;;5056491;28;20095;-52
2022/01/20 04:42:47;;;;;;;18.25;4.55;;;4.70;99.90;;;;;;5038609;28;20033;-52
2022/01/20 04:45:19;;;;;;;17.73;5.13;;;4.90;99.90;;;;;;5038496;28;20029;-50
2022/01/20 04:58:23;;;;;;;18.73;5.88;;;5.00;99.90;;;;;;5056660;28;20087;-54
2022/01/20 05:00:48;;;;;;;26.88;5.93;;;5.00;99.90;;;;;;5038200;28;20032;-53
2022/01/20 05:03:14;;;;;;;23.60;4.95;;;5.00;99.90;;;;;;5056018;28;20056;-51
2022/01/20 05:05:40;;;;;;;23.05;4.50;;;4.90;99.90;;;;;;5038897;28;20040;-55
2022/01/20 05:08:05;;;;;;;21.85;6.20;;;4.80;99.90;;;;;;5038030;28;20033;-52
2022/01/20 05:10:33;;;;;;;14.25;5.00;;;4.70;99.90;;;;;;5055852;28;20055;-52
2022/01/20 05:13:10;;;;;;;17.83;4.45;;;4.60;99.90;;;;;;5038031;28;20029;-53
2022/01/20 05:15:36;;;;;;;23.15;5.40;;;4.70;99.90;;;;;;5056131;28;20013;-54
2022/01/20 05:18:02;;;;;;;14.32;4.75;;;4.70;99.90;;;;;;5037761;28;20044;-51
2022/01/20 05:20:27;;;;;;;20.13;5.20;;;4.80;99.90;;;;;;5055653;28;20025;-55
2022/01/20 05:22:53;;;;;;;21.48;5.20;;;4.80;99.90;;;;;;5055204;28;20031;-52
2022/01/20 05:25:19;;;;;;;23.70;5.88;;;4.90;99.90;;;;;;5037694;28;20095;-54
2022/01/20 05:27:44;;;;;;;17.40;5.32;;;5.00;99.90;;;;;;5037652;28;20112;-55
2022/01/20 05:30:12;;;;;;;19.02;4.50;;;5.00;99.90;;;;;;5037979;28;20028;-53
2022/01/20 05:32:38;;;;;;;19.58;4.55;;;5.20;99.90;;;;;;5038445;28;20029;-54
2022/01/20 05:35:04;;;;;;;13.05;4.53;;;5.20;99.90;;;;;;5055397;28;20031;-56
2022/01/20 05:37:30;;;;;;;17.55;3.97;;;5.10;99.90;;;;;;5037411;28;20029;-53
2022/01/20 05:39:55;;;;;;;13.82;4.25;;;5.20;99.90;;;;;;5037478;28;20074;-51
2022/01/20 05:42:21;;;;;;;19.08;5.18;;;5.30;99.90;;;;;;5055269;28;20021;-52
2022/01/20 05:44:50;;;;;;;15.88;4.07;;;5.30;99.90;;;;;;5055793;28;20528;-50
2022/01/20 05:47:25;;;;;;;13.70;3.38;;;5.30;99.90;;;;;;5037407;28;20037;-52
2022/01/20 05:49:50;;;;;;;28.05;5.18;;;5.40;99.90;;;;;;5037393;28;20084;-52
2022/01/20 05:52:17;;;;;;;36.58;7.15;;;5.40;99.90;;;;;;5055388;28;20068;-50
2022/01/20 05:54:42;;;;;;;19.58;4.43;;;5.40;99.90;;;;;;5037137;28;20021;-51
2022/01/20 05:57:10;;;;;;;13.80;3.33;;;5.40;99.90;;;;;;5055036;28;20042;-52
2022/01/20 05:59:36;;;;;;;19.75;3.60;;;5.40;99.90;;;;;;5054989;28;20025;-52
2022/01/20 06:02:11;;;;;;;22.63;4.32;;;5.40;99.90;;;;;;5037495;28;20021;-54
2022/01/20 06:04:36;;;;;;;14.40;4.50;;;5.40;99.90;;;;;;5055269;28;20035;-52
2022/01/20 06:07:02;;;;;;;24.70;6.95;;;5.50;99.90;;;;;;5054646;28;20025;-51
2022/01/20 06:09:28;;;;;;;47.55;19.25;;;5.40;99.90;;;;;;5036956;28;20021;-50
2022/01/20 06:11:53;;;;;;;25.55;12.50;;;5.40;99.90;;;;;;5036868;28;20023;-53
2022/01/20 06:14:19;;;;;;;20.77;10.98;;;5.40;99.90;;;;;;5054918;28;20032;-52
2022/01/20 06:16:44;;;;;;;22.42;7.20;;;5.50;99.90;;;;;;5036715;28;20029;-53
2022/01/20 06:19:10;;;;;;;15.90;5.03;;;5.50;99.90;;;;;;5054654;28;20117;-51
2022/01/20 06:21:37;;;;;;;22.15;5.10;;;5.50;99.90;;;;;;5054578;28;20021;-50
2022/01/20 06:24:03;;;;;;;18.02;3.80;;;5.50;99.90;;;;;;5054519;28;20025;-50
2022/01/20 06:26:29;;;;;;;13.55;3.38;;;5.50;99.90;;;;;;5037637;28;20028;-53
2022/01/20 06:28:54;;;;;;;11.40;3.30;;;5.60;99.90;;;;;;5036783;28;20025;-50
2022/01/20 06:31:20;;;;;;;10.90;2.67;;;5.60;99.90;;;;;;5054223;28;20472;-52
2022/01/20 06:33:47;;;;;;;17.92;3.50;;;5.60;99.90;;;;;;5053578;28;20025;-49
2022/01/20 06:36:12;;;;;;;8.90;3.15;;;5.60;99.90;;;;;;5037300;28;20029;-53
2022/01/20 06:38:38;;;;;;;13.45;3.05;;;5.50;99.90;;;;;;5054207;28;20112;-51
2022/01/20 06:41:04;;;;;;;12.75;3.25;;;5.50;99.90;;;;;;5036632;28;20111;-51
2022/01/20 06:43:29;;;;;;;12.57;3.30;;;5.40;99.90;;;;;;5054506;28;20047;-54
2022/01/20 06:45:55;;;;;;;13.43;3.85;;;5.40;99.90;;;;;;5036136;28;20032;-49
2022/01/20 06:48:22;;;;;;;25.65;7.93;;;5.50;99.90;;;;;;5037028;28;20025;-51
2022/01/20 06:50:48;;;;;;;26.88;5.82;;;5.60;99.90;;;;;;5054023;28;20017;-51
2022/01/20 06:53:13;;;;;;;23.17;3.92;;;5.70;99.90;;;;;;5036164;28;20073;-52
2022/01/20 06:55:39;;;;;;;11.57;3.38;;;5.60;99.90;;;;;;5036333;28;20021;-51
2022/01/20 06:58:05;;;;;;;12.15;3.17;;;5.60;99.90;;;;;;5036194;28;20033;-50
2022/01/20 07:00:31;;;;;;;15.00;3.50;;;5.60;99.90;;;;;;5053803;28;20485;-54
2022/01/20 07:02:56;;;;;;;12.10;3.47;;;5.50;99.90;;;;;;5035912;28;20048;-55
2022/01/20 07:05:23;;;;;;;16.23;3.75;;;5.60;99.90;;;;;;5053638;28;20047;-55
2022/01/20 07:07:49;;;;;;;12.75;3.03;;;5.60;99.90;;;;;;5035611;28;20485;-52
2022/01/20 07:10:17;;;;;;;8.32;2.67;;;5.70;99.90;;;;;;5053692;28;20027;-51
2022/01/20 07:12:44;;;;;;;13.60;2.47;;;5.80;99.90;;;;;;5035442;28;20047;-51
2022/01/20 07:15:10;;;;;;;10.52;3.25;;;5.80;99.90;;;;;;5035612;28;20021;-52
2022/01/20 07:17:36;;;;;;;9.20;1.90;;;5.80;99.90;;;;;;5035619;28;20059;-53
2022/01/20 07:20:03;;;;;;;9.38;1.90;;;5.90;99.90;;;;;;5035994;28;20025;-55
2022/01/20 07:22:28;;;;;;;11.27;2.20;;;6.00;99.90;;;;;;5036133;28;20056;-53
2022/01/20 07:24:54;;;;;;;9.45;2.30;;;6.00;99.90;;;;;;5036438;28;20096;-51
2022/01/20 07:27:19;;;;;;;8.68;2.20;;;6.00;99.90;;;;;;5053292;28;20025;-51
2022/01/20 07:29:45;;;;;;;8.48;2.33;;;6.00;99.90;;;;;;5035536;28;20021;-50
2022/01/20 07:32:11;;;;;;;10.63;3.47;;;6.00;99.90;;;;;;5035562;28;20021;-52
2022/01/20 07:34:36;;;;;;;6.05;2.15;;;5.80;99.90;;;;;;5053330;28;20028;-57
2022/01/20 07:37:04;;;;;;;9.60;2.63;;;5.70;99.90;;;;;;5035942;28;20024;-57
2022/01/20 07:39:30;;;;;;;6.07;2.70;;;5.70;99.90;;;;;;5053271;28;20057;-54
2022/01/20 07:41:55;;;;;;;8.10;2.83;;;5.60;99.90;;;;;;5053178;28;20048;-55
2022/01/20 07:44:21;;;;;;;10.38;2.75;;;5.50;99.90;;;;;;5053147;28;20027;-53
2022/01/20 07:46:47;;;;;;;12.10;2.95;;;5.50;99.90;;;;;;5052817;28;20021;-51
2022/01/20 07:49:14;;;;;;;9.30;2.58;;;5.40;99.90;;;;;;5053087;28;20443;-55
2022/01/20 07:51:40;;;;;;;12.25;3.13;;;5.50;99.90;;;;;;5053077;28;20031;-53
2022/01/20 07:54:06;;;;;;;10.27;2.67;;;5.60;99.90;;;;;;5035226;28;20088;-56
2022/01/20 07:56:31;;;;;;;14.55;2.92;;;5.60;99.90;;;;;;5052764;28;20499;-55
2022/01/20 07:58:57;;;;;;;12.70;2.45;;;5.70;99.90;;;;;;5053029;28;20111;-55
2022/01/20 08:01:24;;;;;;;5.93;2.70;;;5.90;99.90;;;;;;5052975;28;20021;-55
2022/01/20 08:03:51;;;;;;;7.30;2.40;;;6.00;99.90;;;;;;5053031;28;20049;-56
2022/01/20 08:06:17;;;;;;;11.23;2.53;;;6.20;99.90;;;;;;5053227;28;20029;-53
2022/01/20 08:08:43;;;;;;;4.10;1.63;;;6.20;99.90;;;;;;5053095;28;20433;-58
2022/01/20 08:11:08;;;;;;;5.88;1.98;;;6.30;99.90;;;;;;5035426;28;20025;-56
2022/01/20 08:13:34;;;;;;;13.10;2.30;;;6.30;99.90;;;;;;5053232;28;20013;-56
2022/01/20 08:16:00;;;;;;;6.10;1.45;;;6.30;99.90;;;;;;5052689;28;20489;-53
2022/01/20 08:18:25;;;;;;;4.13;1.95;;;6.30;99.90;;;;;;5035049;28;20025;-54
2022/01/20 08:20:51;;;;;;;8.82;1.55;;;6.30;99.90;;;;;;5034989;28;20056;-57
2022/01/20 08:23:16;;;;;;;9.05;1.88;;;6.30;99.90;;;;;;5035316;28;20025;-52
2022/01/20 08:25:42;;;;;;;5.47;1.17;;;6.20;99.90;;;;;;5034884;28;20025;-56
2022/01/20 08:28:08;;;;;;;5.68;1.65;;;6.10;99.90;;;;;;5035217;28;20032;-53
2022/01/20 08:30:34;;;;;;;3.67;1.20;;;6.00;99.90;;;;;;5053000;28;20025;-52
2022/01/20 08:33:00;;;;;;;3.33;1.45;;;6.10;99.90;;;;;;5053090;28;20025;-56
2022/01/20 08:35:31;;;;;;;4.00;1.15;;;6.20;99.90;;;;;;5053058;28;20063;-53
2022/01/20 08:37:58;;;;;;;8.00;1.20;;;6.30;99.90;;;;;;5034918;28;20021;-52
2022/01/20 08:40:24;;;;;;;7.38;1.15;;;6.40;99.90;;;;;;5034825;28;20147;-51
2022/01/20 08:42:51;;;;;;;3.10;1.05;;;6.40;99.90;;;;;;5052662;28;20053;-54
2022/01/20 08:45:21;;;;;;;4.53;1.15;;;6.30;99.90;;;;;;5052906;28;20025;-54
2022/01/20 08:47:49;;;;;;;4.57;1.33;;;6.20;99.90;;;;;;5052495;28;20018;-56
2022/01/20 08:50:15;;;;;;;4.35;0.85;;;6.50;99.90;;;;;;5035656;28;20033;-53
2022/01/20 08:52:40;;;;;;;2.70;0.80;;;6.50;99.90;;;;;;5052574;28;20021;-53
2022/01/20 08:55:07;;;;;;;7.13;1.13;;;6.60;99.90;;;;;;5035027;28;20021;-57
2022/01/20 08:57:32;;;;;;;3.08;0.70;;;6.60;99.90;;;;;;5053745;28;20044;-52
2022/01/20 08:59:58;;;;;;;2.95;0.77;;;6.70;99.90;;;;;;5039116;28;20020;-54
2022/01/20 09:02:24;;;;;;;4.80;0.93;;;6.90;99.90;;;;;;5056287;28;20104;-53
2022/01/20 09:04:50;;;;;;;3.30;0.75;;;6.90;99.90;;;;;;5039060;28;20029;-52
2022/01/20 09:07:16;;;;;;;4.25;0.77;;;6.80;99.90;;;;;;5037913;28;20029;-56
2022/01/20 09:09:45;;;;;;;1.35;0.65;;;6.80;99.90;;;;;;5055950;28;20084;-53
2022/01/20 09:17:24;;;;;;;7.05;1.00;;;9.90;99.90;;;;;;5055856;28;20091;-49
2022/01/20 09:19:50;;;;;;;5.18;0.77;;;10.80;99.90;;;;;;5055739;28;20029;-53
2022/01/20 09:22:16;;;;;;;1.23;0.70;;;11.40;99.90;;;;;;5038203;28;20473;-52
2022/01/20 09:24:44;;;;;;;1.83;0.63;;;12.30;99.90;;;;;;5055758;28;20101;-53
2022/01/20 09:27:11;;;;;;;4.97;1.00;;;13.40;99.90;;;;;;5055817;28;20021;-52
2022/01/20 09:29:36;;;;;;;5.00;1.00;;;14.10;99.90;;;;;;5037651;28;20021;-53
2022/01/20 09:32:05;;;;;;;6.20;1.10;;;14.50;99.90;;;;;;5055824;28;20028;-50
2022/01/20 09:34:31;;;;;;;5.00;1.35;;;14.70;99.90;;;;;;5037624;28;20021;-53
2022/01/20 09:36:56;;;;;;;4.20;0.90;;;14.90;99.90;;;;;;5037591;28;20032;-53
2022/01/20 09:39:22;;;;;;;7.15;1.63;;;15.30;99.90;;;;;;5055356;28;20029;-51
2022/01/20 09:41:48;;;;;;;4.38;1.20;;;15.20;99.90;;;;;;5037478;28;20477;-52
2022/01/20 09:44:14;;;;;;;3.88;1.17;;;15.20;99.10;;;;;;5055333;28;20032;-52
2022/01/20 09:46:41;;;;;;;5.63;1.00;;;15.10;99.30;;;;;;5038240;28;20037;-53
2022/01/20 09:49:09;;;;;;;1.90;0.90;;;15.00;97.80;;;;;;5037442;28;20025;-52
2022/01/20 09:51:35;;;;;;;5.18;1.20;;;15.40;98.60;;;;;;5055434;28;20013;-51
2022/01/20 09:54:01;;;;;;;8.90;1.08;;;15.00;97.00;;;;;;5055199;28;20037;-51
2022/01/20 09:56:26;;;;;;;6.07;1.20;;;14.00;98.80;;;;;;5037607;28;20025;-55
2022/01/20 09:58:52;;;;;;;9.85;1.42;;;13.10;98.40;;;;;;5055042;28;20021;-55
2022/01/20 10:01:47;;;;;;;8.77;2.60;;;12.20;99.90;;;;;;5055386;28;20021;-56
2022/01/20 10:04:30;;;;;;;8.57;1.50;;;11.60;99.90;;;;;;5037786;28;20017;-52
2022/01/20 10:10:18;;;;;;;6.65;0.90;;;10.90;99.90;;;;;;5055239;28;20036;-51
2022/01/20 10:12:43;;;;;;;5.60;1.30;;;10.80;99.90;;;;;;5037031;28;20021;-52
2022/01/20 10:15:12;;;;;;;7.78;1.38;;;10.70;99.90;;;;;;5036961;28;20053;-50
2022/01/20 10:17:38;;;;;;;7.90;1.98;;;10.50;99.90;;;;;;5037227;28;20116;-53
2022/01/20 10:20:07;;;;;;;4.18;1.60;;;10.40;99.90;;;;;;5054961;28;20029;-55
2022/01/20 10:22:36;;;;;;;3.95;1.23;;;10.20;99.90;;;;;;5054702;28;20021;-56
2022/01/20 10:25:12;;;;;;;5.18;1.08;;;9.80;99.90;;;;;;5036681;28;20025;-57
2022/01/20 10:27:52;;;;;;;4.25;0.90;;;9.70;99.90;;;;;;5036589;28;20038;-49
2022/01/20 10:30:19;;;;;;;6.90;1.27;;;9.50;99.90;;;;;;5054510;28;20088;-50
2022/01/20 10:32:50;;;;;;;8.00;1.58;;;9.50;99.90;;;;;;5054958;28;20021;-57
2022/01/20 10:35:19;;;;;;;6.28;1.73;;;9.30;99.90;;;;;;5036814;28;20047;-53
2022/01/20 10:37:57;;;;;;;8.05;1.20;;;9.20;99.90;;;;;;5054221;28;20025;-48
2022/01/20 10:40:23;;;;;;;8.45;1.85;;;9.20;99.90;;;;;;5054334;28;20021;-52
2022/01/20 10:42:49;;;;;;;10.07;1.67;;;9.30;99.90;;;;;;5036280;28;20036;-51
2022/01/20 10:45:29;;;;;;;7.95;1.80;;;9.40;99.90;;;;;;5036680;28;20059;-52
2022/01/20 10:47:58;;;;;;;12.48;1.75;;;9.50;99.90;;;;;;5053945;28;20021;-50
2022/01/20 10:50:27;;;;;;;5.95;1.10;;;9.60;99.90;;;;;;5036543;28;20032;-52
2022/01/20 10:52:53;;;;;;;9.90;2.45;;;9.80;99.90;;;;;;5054125;28;20032;-47
2022/01/20 10:55:25;;;;;;;8.70;1.40;;;9.70;99.90;;;;;;5053949;28;20025;-51
2022/01/20 10:58:07;;;;;;;6.47;1.13;;;9.70;99.90;;;;;;5035983;28;20025;-48
2022/01/20 11:00:39;;;;;;;4.97;1.73;;;9.60;99.90;;;;;;5036061;28;20025;-51
2022/01/20 11:03:05;;;;;;;12.65;2.45;;;9.20;99.90;;;;;;5054583;28;20029;-52
2022/01/20 11:05:31;;;;;;;7.18;1.23;;;9.10;99.90;;;;;;5036168;28;20025;-54
2022/01/20 11:07:57;;;;;;;2.47;0.85;;;9.10;99.90;;;;;;5036365;28;20033;-57
2022/01/20 11:10:24;;;;;;;5.60;1.13;;;9.00;99.90;;;;;;5036201;28;20048;-52
2022/01/20 11:12:50;;;;;;;8.90;1.52;;;8.90;99.90;;;;;;5053674;28;20025;-51
2022/01/20 11:15:17;;;;;;;6.20;1.08;;;8.80;99.90;;;;;;5036034;28;20127;-52
2022/01/20 11:17:44;;;;;;;10.55;1.48;;;8.80;99.90;;;;;;5035561;28;20036;-52
2022/01/20 11:20:12;;;;;;;7.43;0.90;;;8.80;99.90;;;;;;5053002;28;20070;-51
2022/01/20 11:22:49;;;;;;;3.72;1.27;;;8.80;99.90;;;;;;5053492;28;20080;-52
2022/01/20 11:25:18;;;;;;;4.35;1.25;;;8.80;99.90;;;;;;5053528;28;20032;-53
2022/01/20 11:27:44;;;;;;;9.38;1.17;;;8.90;99.90;;;;;;5053329;28;20028;-53
2022/01/20 11:30:15;;;;;;;3.53;1.02;;;8.70;99.90;;;;;;5053384;28;20029;-57
2022/01/20 11:32:42;;;;;;;;;;;8.70;99.90;;;;;;5053749;28;20507;-57
2022/01/20 11:35:09;;;;;;;1.63;0.70;;;8.70;99.90;;;;;;5035523;28;19911;-51
2022/01/20 11:37:38;;;;;;;5.45;0.77;;;8.50;99.90;;;;;;5035497;28;20025;-51
2022/01/20 11:40:19;;;;;;;12.30;1.33;;;8.50;99.90;;;;;;5035679;28;20048;-55
2022/01/20 11:43:11;;;;;;;9.65;2.70;;;8.30;99.90;;;;;;5035399;28;20025;-56
2022/01/20 11:45:46;;;;;;;9.65;1.23;;;8.10;99.90;;;;;;5053427;28;20032;-50
2022/01/20 11:48:23;;;;;;;9.90;1.25;;;7.80;99.90;;;;;;5053427;28;20025;-53
2022/01/20 11:51:06;;;;;;;8.48;1.50;;;7.60;99.90;;;;;;5035316;28;20076;-54
2022/01/20 11:53:31;;;;;;;8.00;1.10;;;7.50;99.90;;;;;;5035256;28;20021;-54
2022/01/20 11:55:57;;;;;;;10.55;2.33;;;7.70;99.90;;;;;;5036014;28;20036;-55
2022/01/20 11:58:25;;;;;;;6.55;1.30;;;7.50;99.90;;;;;;5035464;28;20024;-52
2022/01/20 12:01:01;;;;;;;6.38;1.63;;;7.50;99.90;;;;;;5035205;28;20028;-52
2022/01/20 12:03:29;;;;;;;6.47;1.65;;;7.30;99.90;;;;;;5036038;28;20021;-50
2022/01/20 12:06:03;;;;;;;4.68;1.42;;;7.40;99.90;;;;;;5052868;28;20029;-56
2022/01/20 12:08:31;;;;;;;8.35;1.05;;;7.50;99.90;;;;;;5052619;28;20047;-57
2022/01/20 12:11:16;;;;;;;5.35;1.30;;;7.40;99.90;;;;;;5035131;28;20024;-57
2022/01/20 12:13:49;;;;;;;6.65;1.80;;;7.40;99.90;;;;;;5035939;28;20044;-50
2022/01/20 12:16:20;;;;;;;12.70;2.13;;;7.30;99.90;;;;;;5034955;28;20032;-52
2022/01/20 12:18:57;;;;;;;7.05;1.48;;;7.20;99.90;;;;;;5036110;28;20116;-55
2022/01/20 12:21:24;;;;;;;3.15;1.08;;;7.40;99.90;;;;;;5053207;28;20108;-52
2022/01/20 12:23:52;;;;;;;10.10;2.10;;;7.30;99.90;;;;;;5034946;28;20031;-52
2022/01/20 12:26:18;;;;;;;10.07;1.85;;;7.30;99.90;;;;;;5052807;28;20021;-55
2022/01/20 12:28:43;;;;;;;6.88;1.92;;;7.40;99.90;;;;;;5035169;28;20027;-50
2022/01/20 12:31:12;;;;;;;3.70;0.90;;;7.70;99.90;;;;;;5034953;28;20588;-51
2022/01/20 12:33:43;;;;;;;4.70;1.55;;;7.80;99.90;;;;;;5055939;28;20070;-53
2022/01/20 12:36:13;;;;;;;6.03;1.90;;;7.90;99.90;;;;;;5056743;28;20025;-51
2022/01/20 12:38:39;;;;;;;11.43;1.75;;;7.90;99.90;;;;;;5056566;28;20052;-58
2022/01/20 12:41:09;;;;;;;3.47;1.33;;;8.00;99.90;;;;;;5039715;28;20049;-56
2022/01/20 12:43:42;;;;;;;7.55;1.55;;;8.10;99.90;;;;;;5056458;28;20040;-56
2022/01/20 12:46:19;;;;;;;6.45;1.60;;;7.90;99.90;;;;;;5056419;28;20021;-57
2022/01/20 12:49:07;;;;;;;4.78;1.17;;;7.60;99.90;;;;;;5039259;28;20064;-56
2022/01/20 12:51:54;;;;;;;4.53;1.35;;;7.60;99.90;;;;;;5056333;28;20028;-57
2022/01/20 12:54:27;;;;;;;15.98;1.45;;;7.50;99.90;;;;;;5056263;28;20021;-57
2022/01/20 12:56:55;;;;;;;7.38;1.60;;;7.50;99.90;;;;;;5038848;28;20393;-54
2022/01/20 12:59:33;;;;;;;11.63;1.75;;;7.50;99.90;;;;;;5056278;28;20079;-58
2022/01/20 13:02:01;;;;;;;2.65;1.13;;;7.40;99.90;;;;;;5038355;28;20025;-55
2022/01/20 13:04:28;;;;;;;4.55;1.20;;;7.30;99.90;;;;;;5056522;28;20476;-55
2022/01/20 13:06:58;;;;;;;11.73;1.83;;;7.20;99.90;;;;;;5038696;28;20092;-51
2022/01/20 13:09:35;;;;;;;6.28;1.33;;;7.00;99.90;;;;;;5038096;28;20032;-53
2022/01/20 13:12:02;;;;;;;6.55;1.60;;;6.80;99.90;;;;;;5038130;28;20028;-53
2022/01/20 13:14:41;;;;;;;4.75;0.98;;;6.80;99.90;;;;;;5038944;28;20032;-55
2022/01/20 13:17:11;;;;;;;2.22;0.88;;;6.80;99.90;;;;;;5055727;28;20037;-54
2022/01/20 13:19:44;;;;;;;5.35;1.48;;;6.90;99.90;;;;;;5038019;28;20112;-55
2022/01/20 13:22:20;;;;;;;7.32;0.90;;;7.10;99.90;;;;;;5055763;28;20025;-55
2022/01/20 13:24:46;;;;;;;9.98;1.88;;;7.20;99.90;;;;;;5055968;28;20021;-55
2022/01/20 13:27:13;;;;;;;6.97;0.90;;;7.30;99.90;;;;;;5055659;28;20029;-53
2022/01/20 13:29:44;;;;;;;10.75;1.98;;;7.40;99.90;;;;;;5055659;28;20025;-51
2022/01/20 13:32:11;;;;;;;7.25;1.20;;;7.50;99.90;;;;;;5038553;28;20029;-52
2022/01/20 13:34:37;;;;;;;11.68;1.35;;;7.60;99.90;;;;;;5055638;28;20036;-52
2022/01/20 13:37:03;;;;;;;9.80;1.85;;;7.70;99.90;;;;;;5037636;28;20028;-53
2022/01/20 13:39:33;;;;;;;4.88;1.00;;;7.80;99.90;;;;;;5055768;28;20428;-52
2022/01/20 13:42:30;;;;;;;2.83;1.00;;;7.90;99.90;;;;;;5037707;28;20035;-54
2022/01/20 13:45:12;;;;;;;4.80;1.83;;;7.90;99.90;;;;;;5037299;28;20116;-53
2022/01/20 13:47:54;;;;;;;13.73;2.95;;;7.90;99.90;;;;;;5037688;28;20040;-50
2022/01/20 13:50:44;;;;;;;4.28;0.90;;;7.90;99.90;;;;;;5055232;28;20115;-51
2022/01/20 13:53:20;;;;;;;7.82;1.42;;;7.90;99.90;;;;;;5037303;28;20025;-54
2022/01/20 13:55:49;;;;;;;9.15;2.15;;;7.70;99.90;;;;;;5037447;28;20104;-58
2022/01/20 13:58:27;;;;;;;11.27;3.10;;;7.60;99.90;;;;;;5037823;28;20025;-55
2022/01/20 14:00:54;;;;;;;10.70;1.95;;;7.40;99.90;;;;;;5055462;28;20078;-52
2022/01/20 14:03:22;;;;;;;12.55;1.90;;;7.40;99.90;;;;;;5055258;28;20036;-54
2022/01/20 14:05:49;;;;;;;8.50;2.25;;;7.50;99.90;;;;;;5037172;28;20028;-56
2022/01/20 14:08:14;;;;;;;11.85;1.65;;;7.40;99.90;;;;;;5055396;28;20021;-53
2022/01/20 14:10:40;;;;;;;12.93;1.60;;;7.30;99.90;;;;;;5055112;28;20036;-55
2022/01/20 14:13:06;;;;;;;15.00;2.38;;;7.10;99.90;;;;;;5054869;28;20017;-54